Terminal Aerodrome Forecast
Issued by NWS Spokane, WA

Home | Current Version | Previous Version | Text Only | Print | Product List | Glossary On
Versions: 1 2 3 4 5 6 7 8 9 10 11 12 13 14 15 16 17 18 19 20 21 22 23 24
000
FTUS46 KOTX 251139
TAFLWS
TAF
KLWS 251139Z 2512/2612 VRB03KT P6SM SCT070 BKN090
     FM251900 32007KT P6SM SCT060 SCT080
     FM260300 17005KT P6SM SKC
     FM260900 14003KT P6SM SCT060=

USA.gov is the U.S. government's official web portal to all federal, state and local government web resources and services.